Lafargeville, New York
Current Conditions -  °F | °C
As of 12:56 AM on Wednesday 22 Oct 2014 (Local Time) from KART Reporting Station
Overcast Overcast  
Wind Chill: 37°   Ceiling: 1500
Heat Index: 45°   Visibility: 10mi
Dew Point: 38°   Wind: 18mph
Humidity: 76%   Direction: 40°NE
Pressure: 30.1"   Gusts: 25mph
Location:  44.1911°N, 75.9494°W
Report Text: KART 220456Z AUTO 04016G22KT 10SM OVC015 07/03 A3010 RMK AO2 SLP193 T00720033 401170072
Loading
Personal Weather Stations






























Interactive Weather Map
Tropical Storm Tracking
New forecast layout! Learn more

10-Day Weather Forecast

Advertisements
Track Severe Weather on mobile